Wetterdaten: Woche 20.09.21 - 26.09.21 (KW38)
Datum Zeit Temp. Aussen Temp. o. S. Temp +5cm Feuchte Auss Luftdruck Regen Sonnenschein Regendauer Solar Windben Empfang
20.09.2021 00:00 12,1 C 11,3 C 9,8 C 86 % 1017,6 hPa 0,0 l/m 0,00 h 0,00 h 0 W/m 4,3 km/h (1 Bft) 98,83 %
20.09.2021 01:00 11,0 C 10,2 C 9,0 C 88 % 1017,6 hPa 0,0 l/m 0,00 h 0,00 h 0 W/m 3,3 km/h (1 Bft) 95,44 %
20.09.2021 02:00 10,5 C 9,7 C 8,9 C 90 % 1017,8 hPa 0,0 l/m 0,00 h 0,00 h 0 W/m 2,2 km/h (1 Bft) 96,77 %
20.09.2021 03:00 10,1 C 9,3 C 8,4 C 91 % 1017,9 hPa 0,0 l/m 0,00 h 0,00 h 0 W/m 1,5 km/h (1 Bft) 98,00 %
20.09.2021 04:00 9,6 C 8,8 C 8,2 C 92 % 1017,9 hPa 0,0 l/m 0,00 h 0,00 h 0 W/m 1,7 km/h (1 Bft) 97,38 %
20.09.2021 05:00 9,1 C 8,3 C 7,8 C 93 % 1018,0 hPa 0,0 l/m 0,00 h 0,00 h 0 W/m 1,9 km/h (1 Bft) 94,72 %
20.09.2021 06:00 8,8 C 8,0 C 7,6 C 93 % 1018,4 hPa 0,0 l/m 0,00 h 0,00 h 0 W/m 2,0 km/h (1 Bft) 97,33 %
20.09.2021 07:00 8,6 C 8,0 C 7,6 C 94 % 1018,8 hPa 0,0 l/m 0,00 h 0,00 h 16 W/m 3,7 km/h (1 Bft) 97,08 %
20.09.2021 08:00 9,2 C 9,4 C 8,7 C 95 % 1019,1 hPa 0,0 l/m 0,00 h 0,00 h 58 W/m 2,9 km/h (1 Bft) 95,24 %
20.09.2021 09:00 11,2 C 12,2 C 10,7 C 94 % 1019,5 hPa 0,0 l/m 0,00 h 0,00 h 122 W/m 6,0 km/h (2 Bft) 97,84 %
20.09.2021 10:00 13,1 C 14,3 C 12,1 C 87 % 1019,9 hPa 0,0 l/m 0,27 h 0,00 h 197 W/m 9,1 km/h (2 Bft) 97,86 %
20.09.2021 11:00 14,9 C 16,7 C 14,4 C 79 % 1020,4 hPa 0,0 l/m 0,93 h 0,00 h 357 W/m 10,5 km/h (2 Bft) 96,26 %
20.09.2021 12:00 16,0 C 17,6 C 14,9 C 74 % 1020,7 hPa 0,0 l/m 1,00 h 0,00 h 373 W/m 11,2 km/h (2 Bft) 99,51 %
20.09.2021 13:00 16,8 C 18,7 C 15,3 C 69 % 1020,8 hPa 0,0 l/m 1,00 h 0,00 h 415 W/m 10,1 km/h (2 Bft) 96,28 %
20.09.2021 14:00 17,2 C 18,6 C 15,0 C 65 % 1020,9 hPa 0,0 l/m 0,53 h 0,00 h 324 W/m 7,5 km/h (2 Bft) 97,76 %
20.09.2021 15:00 17,9 C 18,8 C 15,2 C 63 % 1021,3 hPa 0,0 l/m 0,60 h 0,00 h 378 W/m 7,7 km/h (2 Bft) 98,93 %
20.09.2021 16:00 17,3 C 17,3 C 14,5 C 65 % 1021,5 hPa 0,0 l/m 0,00 h 0,00 h 164 W/m 9,9 km/h (2 Bft) 96,44 %
20.09.2021 17:00 16,4 C 16,5 C 13,7 C 66 % 1021,8 hPa 0,0 l/m 0,10 h 0,00 h 130 W/m 12,7 km/h (3 Bft) 98,01 %
20.09.2021 18:00 15,6 C 15,4 C 12,7 C 66 % 1022,5 hPa 0,0 l/m 0,33 h 0,00 h 71 W/m 13,3 km/h (3 Bft) 97,76 %
20.09.2021 19:00 14,5 C 13,5 C 11,3 C 68 % 1023,1 hPa 0,0 l/m 0,00 h 0,00 h 13 W/m 8,9 km/h (2 Bft) 96,15 %
20.09.2021 20:00 13,9 C 13,2 C 11,1 C 69 % 1023,9 hPa 0,0 l/m 0,00 h 0,00 h 0 W/m 8,7 km/h (2 Bft) 98,36 %
20.09.2021 21:00 14,0 C 13,3 C 11,1 C 69 % 1024,7 hPa 0,0 l/m 0,00 h 0,00 h 0 W/m 10,0 km/h (2 Bft) 98,00 %
20.09.2021 22:00 13,8 C 13,2 C 10,8 C 69 % 1025,2 hPa 0,0 l/m 0,00 h 0,00 h 0 W/m 8,0 km/h (2 Bft) 96,01 %
20.09.2021 23:00 13,4 C 12,8 C 10,6 C 71 % 1025,5 hPa 0,0 l/m 0,00 h 0,00 h 0 W/m 9,2 km/h (2 Bft) 98,87 %
21.09.2021 00:00 13,0 C 12,2 C 10,0 C 74 % 1025,8 hPa 0,0 l/m 0,00 h 0,00 h 0 W/m 6,0 km/h (2 Bft) 97,49 %
21.09.2021 01:00 13,0 C 12,2 C 10,3 C 75 % 1026,3 hPa 0,0 l/m 0,00 h 0,00 h 0 W/m 6,7 km/h (2 Bft) 96,23 %
21.09.2021 02:00 12,7 C 12,2 C 10,0 C 78 % 1026,7 hPa 0,0 l/m 0,00 h 0,00 h 0 W/m 6,3 km/h (2 Bft) 99,36 %
21.09.2021 03:00 12,4 C 11,7 C 9,7 C 81 % 1026,9 hPa 0,0 l/m 0,00 h 0,00 h 0 W/m 3,5 km/h (1 Bft) 96,44 %
21.09.2021 04:00 12,1 C 11,6 C 9,5 C 83 % 1027,0 hPa 0,0 l/m 0,00 h 0,00 h 0 W/m 3,4 km/h (1 Bft) 97,47 %
21.09.2021 05:00 11,7 C 11,0 C 9,3 C 84 % 1027,2 hPa 0,0 l/m 0,00 h 0,00 h 0 W/m 2,1 km/h (1 Bft) 96,87 %
21.09.2021 06:00 11,5 C 10,8 C 9,2 C 84 % 1028,0 hPa 0,0 l/m 0,00 h 0,00 h 0 W/m 1,8 km/h (1 Bft) 99,01 %
21.09.2021 07:00 11,1 C 9,9 C 8,6 C 86 % 1028,6 hPa 0,0 l/m 0,00 h 0,00 h 13 W/m 1,0 km/h (0 Bft) 96,23 %
21.09.2021 08:00 10,6 C 10,2 C 8,7 C 88 % 1029,2 hPa 0,0 l/m 0,00 h 0,00 h 41 W/m 1,6 km/h (1 Bft) 97,48 %
21.09.2021 09:00 11,3 C 11,9 C 10,0 C 88 % 1029,7 hPa 0,0 l/m 0,03 h 0,00 h 70 W/m 4,1 km/h (1 Bft) 99,48 %
21.09.2021 10:00 13,5 C 14,7 C 11,9 C 77 % 1030,2 hPa 0,0 l/m 0,03 h 0,00 h 139 W/m 5,1 km/h (1 Bft) 95,23 %
21.09.2021 11:00 15,9 C 18,2 C 15,7 C 64 % 1030,4 hPa 0,0 l/m 0,67 h 0,00 h 361 W/m 7,7 km/h (2 Bft) 98,29 %
21.09.2021 12:00 17,3 C 18,7 C 15,7 C 58 % 1030,5 hPa 0,0 l/m 0,63 h 0,00 h 402 W/m 7,9 km/h (2 Bft) 97,68 %
21.09.2021 13:00 17,5 C 18,8 C 15,0 C 57 % 1030,4 hPa 0,0 l/m 0,70 h 0,00 h 431 W/m 7,7 km/h (2 Bft) 98,43 %
21.09.2021 14:00 18,5 C 22,0 C 15,3 C 55 % 1030,3 hPa 0,0 l/m 1,00 h 0,00 h 489 W/m 7,2 km/h (2 Bft) 97,22 %
21.09.2021 15:00 19,0 C 20,3 C 15,5 C 55 % 1030,0 hPa 0,0 l/m 1,00 h 0,00 h 458 W/m 7,3 km/h (2 Bft) 96,14 %
21.09.2021 16:00 19,1 C 22,0 C 15,6 C 54 % 1029,8 hPa 0,0 l/m 1,00 h 0,00 h 335 W/m 5,3 km/h (1 Bft) 99,72 %
21.09.2021 17:00 18,5 C 20,2 C 14,9 C 59 % 1029,9 hPa 0,0 l/m 0,90 h 0,00 h 203 W/m 11,7 km/h (2 Bft) 95,81 %
21.09.2021 18:00 17,3 C 16,7 C 13,9 C 65 % 1030,0 hPa 0,0 l/m 0,00 h 0,00 h 69 W/m 6,3 km/h (2 Bft) 98,08 %
21.09.2021 19:00 16,3 C 14,7 C 12,2 C 69 % 1030,2 hPa 0,0 l/m 0,00 h 0,00 h 15 W/m 1,0 km/h (0 Bft) 98,51 %
21.09.2021 20:00 14,9 C 12,9 C 10,6 C 76 % 1030,7 hPa 0,0 l/m 0,00 h 0,00 h 0 W/m 0,0 km/h (0 Bft) 97,01 %
21.09.2021 21:00 13,4 C 11,7 C 9,7 C 82 % 1031,0 hPa 0,0 l/m 0,00 h 0,00 h 0 W/m 0,0 km/h (0 Bft) 96,87 %
21.09.2021 22:00 12,3 C 11,0 C 9,3 C 85 % 1031,1 hPa 0,0 l/m 0,00 h 0,00 h 0 W/m 0,0 km/h (0 Bft) 97,51 %
21.09.2021 23:00 11,7 C 10,4 C 8,9 C 88 % 1031,0 hPa 0,0 l/m 0,00 h 0,00 h 0 W/m 0,1 km/h (0 Bft) 98,93 %
22.09.2021 00:00 11,1 C 10,0 C 8,6 C 89 % 1030,6 hPa 0,0 l/m 0,00 h 0,00 h 0 W/m 0,0 km/h (0 Bft) 95,43 %
22.09.2021 01:00 10,6 C 9,4 C 8,4 C 90 % 1030,5 hPa 0,0 l/m 0,00 h 0,00 h 0 W/m 0,0 km/h (0 Bft) 97,65 %
22.09.2021 02:00 10,0 C 8,8 C 7,9 C 91 % 1030,3 hPa 0,0 l/m 0,00 h 0,00 h 0 W/m 0,0 km/h (0 Bft) 97,41 %
22.09.2021 03:00 9,4 C 8,3 C 7,5 C 92 % 1030,3 hPa 0,0 l/m 0,00 h 0,00 h 0 W/m 0,0 km/h (0 Bft) 97,06 %
22.09.2021 04:00 9,0 C 7,9 C 7,3 C 93 % 1030,0 hPa 0,0 l/m 0,00 h 0,00 h 0 W/m 0,0 km/h (0 Bft) 98,10 %
22.09.2021 05:00 8,6 C 7,8 C 7,2 C 93 % 1029,8 hPa 0,0 l/m 0,00 h 0,00 h 0 W/m 0,1 km/h (0 Bft) 95,73 %
22.09.2021 06:00 8,3 C 7,8 C 6,9 C 94 % 1029,9 hPa 0,0 l/m 0,00 h 0,00 h 0 W/m 0,8 km/h (0 Bft) 97,48 %
22.09.2021 07:00 8,3 C 7,9 C 7,3 C 94 % 1030,2 hPa 0,0 l/m 0,00 h 0,00 h 16 W/m 2,5 km/h (1 Bft) 99,28 %
22.09.2021 08:00 8,8 C 8,9 C 8,2 C 95 % 1030,5 hPa 0,0 l/m 0,00 h 0,00 h 52 W/m 2,2 km/h (1 Bft) 95,93 %
22.09.2021 09:00 10,0 C 10,8 C 9,6 C 95 % 1030,7 hPa 0,0 l/m 0,03 h 0,00 h 117 W/m 5,3 km/h (1 Bft) 97,08 %
22.09.2021 10:00 12,1 C 13,7 C 11,7 C 92 % 1030,7 hPa 0,0 l/m 0,30 h 0,00 h 202 W/m 4,7 km/h (1 Bft) 97,10 %
22.09.2021 11:00 14,8 C 16,8 C 15,8 C 81 % 1030,3 hPa 0,0 l/m 0,57 h 0,00 h 346 W/m 5,8 km/h (2 Bft) 96,23 %
22.09.2021 12:00 17,4 C 18,7 C 16,9 C 70 % 1029,9 hPa 0,0 l/m 0,63 h 0,00 h 371 W/m 7,7 km/h (2 Bft) 95,21 %
22.09.2021 13:00 18,3 C 19,4 C 15,7 C 66 % 1029,3 hPa 0,0 l/m 0,60 h 0,00 h 406 W/m 9,7 km/h (2 Bft) 99,22 %
22.09.2021 14:00 20,0 C 25,0 C 16,3 C 61 % 1028,5 hPa 0,0 l/m 1,00 h 0,00 h 613 W/m 8,3 km/h (2 Bft) 95,59 %
22.09.2021 15:00 20,4 C 20,4 C 16,2 C 60 % 1027,7 hPa 0,0 l/m 1,00 h 0,00 h 547 W/m 9,9 km/h (2 Bft) 98,55 %
22.09.2021 16:00 20,7 C 25,1 C 16,7 C 60 % 1027,2 hPa 0,0 l/m 1,00 h 0,00 h 441 W/m 7,5 km/h (2 Bft) 97,36 %
22.09.2021 17:00 20,2 C 24,3 C 15,9 C 62 % 1026,7 hPa 0,0 l/m 1,00 h 0,00 h 262 W/m 7,4 km/h (2 Bft) 97,51 %
22.09.2021 18:00 19,3 C 19,2 C 15,0 C 65 % 1026,3 hPa 0,0 l/m 0,57 h 0,00 h 79 W/m 4,1 km/h (1 Bft) 97,75 %
22.09.2021 19:00 17,7 C 15,1 C 12,2 C 71 % 1025,9 hPa 0,0 l/m 0,00 h 0,00 h 10 W/m 0,2 km/h (0 Bft) 97,42 %
22.09.2021 20:00 15,4 C 12,8 C 10,6 C 79 % 1025,9 hPa 0,0 l/m 0,00 h 0,00 h 0 W/m 0,0 km/h (0 Bft) 98,30 %
22.09.2021 21:00 13,7 C 11,8 C 9,8 C 84 % 1025,7 hPa 0,0 l/m 0,00 h 0,00 h 0 W/m 0,0 km/h (0 Bft) 98,50 %
22.09.2021 22:00 12,5 C 11,1 C 9,5 C 87 % 1025,3 hPa 0,0 l/m 0,00 h 0,00 h 0 W/m 0,5 km/h (0 Bft) 95,44 %
22.09.2021 23:00 12,1 C 11,1 C 9,4 C 89 % 1025,1 hPa 0,0 l/m 0,00 h 0,00 h 0 W/m 0,6 km/h (0 Bft) 98,72 %
23.09.2021 00:00 11,4 C 9,9 C 8,8 C 90 % 1024,6 hPa 0,0 l/m 0,00 h 0,00 h 0 W/m 0,0 km/h (0 Bft) 97,65 %
23.09.2021 01:00 10,5 C 9,3 C 8,4 C 91 % 1024,1 hPa 0,0 l/m 0,00 h 0,00 h 0 W/m 0,0 km/h (0 Bft) 98,65 %
23.09.2021 02:00 10,0 C 9,4 C 8,4 C 92 % 1023,4 hPa 0,0 l/m 0,00 h 0,00 h 0 W/m 0,0 km/h (0 Bft) 95,57 %
23.09.2021 03:00 10,1 C 9,4 C 8,5 C 93 % 1022,7 hPa 0,0 l/m 0,00 h 0,00 h 0 W/m 0,0 km/h (0 Bft) 98,01 %
23.09.2021 04:00 9,8 C 8,9 C 8,4 C 93 % 1022,0 hPa 0,0 l/m 0,00 h 0,00 h 0 W/m 0,0 km/h (0 Bft) 97,13 %
23.09.2021 05:00 9,4 C 8,5 C 8,0 C 94 % 1021,6 hPa 0,0 l/m 0,00 h 0,00 h 0 W/m 0,0 km/h (0 Bft) 97,51 %
23.09.2021 06:00 9,1 C 8,2 C 7,8 C 94 % 1021,2 hPa 0,0 l/m 0,00 h 0,00 h 0 W/m 1,5 km/h (1 Bft) 96,68 %
23.09.2021 07:00 8,9 C 8,2 C 7,9 C 94 % 1021,3 hPa 0,0 l/m 0,00 h 0,00 h 10 W/m 2,2 km/h (1 Bft) 98,79 %
23.09.2021 08:00 10,2 C 10,2 C 9,3 C 95 % 1020,8 hPa 0,2 l/m 0,00 h 0,00 h 31 W/m 12,3 km/h (3 Bft) 97,15 %
23.09.2021 09:00 12,7 C 12,8 C 11,4 C 90 % 1020,7 hPa 0,0 l/m 0,03 h 0,00 h 75 W/m 14,2 km/h (3 Bft) 95,60 %
23.09.2021 10:00 15,0 C 15,2 C 13,2 C 82 % 1020,2 hPa 0,0 l/m 0,07 h 0,00 h 128 W/m 16,1 km/h (3 Bft) 99,00 %
23.09.2021 11:00 17,6 C 19,2 C 18,2 C 72 % 1019,5 hPa 0,0 l/m 0,47 h 0,00 h 320 W/m 19,3 km/h (3 Bft) 95,87 %
23.09.2021 12:00 19,1 C 19,6 C 17,9 C 67 % 1019,0 hPa 0,0 l/m 0,60 h 0,00 h 374 W/m 19,0 km/h (3 Bft) 98,16 %
23.09.2021 13:00 19,4 C 19,7 C 16,5 C 67 % 1018,6 hPa 0,0 l/m 0,57 h 0,00 h 386 W/m 19,5 km/h (3 Bft) 99,01 %
23.09.2021 14:00 20,6 C 23,4 C 17,3 C 67 % 1018,1 hPa 0,0 l/m 1,00 h 0,00 h 582 W/m 17,7 km/h (3 Bft) 96,83 %
23.09.2021 15:00 21,0 C 21,2 C 17,6 C 67 % 1017,5 hPa 0,0 l/m 0,97 h 0,00 h 489 W/m 20,5 km/h (4 Bft) 96,70 %
23.09.2021 16:00 20,7 C 20,7 C 17,4 C 67 % 1017,2 hPa 0,0 l/m 0,47 h 0,00 h 242 W/m 19,3 km/h (3 Bft) 98,38 %
23.09.2021 17:00 19,7 C 19,0 C 16,5 C 70 % 1017,2 hPa 0,0 l/m 0,00 h 0,00 h 68 W/m 15,7 km/h (3 Bft) 97,58 %
23.09.2021 18:00 19,1 C 18,2 C 15,8 C 74 % 1017,2 hPa 0,0 l/m 0,00 h 0,00 h 16 W/m 13,1 km/h (3 Bft) 97,94 %
23.09.2021 19:00 18,2 C 17,2 C 15,0 C 77 % 1016,9 hPa 0,0 l/m 0,00 h 0,00 h 13 W/m 9,9 km/h (2 Bft) 96,44 %
23.09.2021 20:00 17,2 C 16,1 C 14,1 C 81 % 1017,1 hPa 0,0 l/m 0,00 h 0,00 h 0 W/m 6,4 km/h (2 Bft) 98,79 %
23.09.2021 21:00 16,3 C 15,3 C 13,4 C 85 % 1017,7 hPa 0,0 l/m 0,00 h 0,00 h 0 W/m 6,6 km/h (2 Bft) 96,51 %
23.09.2021 22:00 15,9 C 15,0 C 13,4 C 88 % 1017,8 hPa 0,0 l/m 0,00 h 0,00 h 0 W/m 6,2 km/h (2 Bft) 97,45 %
23.09.2021 23:00 16,0 C 15,4 C 13,7 C 89 % 1017,9 hPa 0,0 l/m 0,00 h 0,00 h 0 W/m 7,5 km/h (2 Bft) 97,54 %
24.09.2021 00:00 16,1 C 15,6 C 13,9 C 88 % 1017,9 hPa 0,0 l/m 0,00 h 0,00 h 0 W/m 6,8 km/h (2 Bft) 97,43 %
24.09.2021 01:00 16,1 C 15,4 C 13,9 C 89 % 1017,8 hPa 0,0 l/m 0,00 h 0,00 h 0 W/m 6,1 km/h (2 Bft) 96,94 %
24.09.2021 02:00 15,9 C 15,0 C 13,6 C 90 % 1017,6 hPa 0,0 l/m 0,00 h 0,00 h 0 W/m 5,3 km/h (1 Bft) 97,94 %
24.09.2021 03:00 15,7 C 15,0 C 13,7 C 92 % 1017,3 hPa 0,0 l/m 0,00 h 0,00 h 0 W/m 7,3 km/h (2 Bft) 97,43 %
24.09.2021 04:00 15,7 C 15,0 C 13,9 C 92 % 1017,1 hPa 0,0 l/m 0,00 h 0,00 h 0 W/m 7,1 km/h (2 Bft) 98,01 %
24.09.2021 05:00 15,6 C 15,0 C 13,9 C 93 % 1017,0 hPa 0,0 l/m 0,00 h 0,00 h 0 W/m 6,2 km/h (2 Bft) 97,36 %
24.09.2021 06:00 15,5 C 14,7 C 13,8 C 94 % 1017,2 hPa 0,0 l/m 0,00 h 0,00 h 0 W/m 7,1 km/h (2 Bft) 97,60 %
24.09.2021 07:00 15,0 C 14,4 C 13,4 C 95 % 1017,3 hPa 0,0 l/m 0,00 h 0,00 h 5 W/m 10,7 km/h (2 Bft) 98,00 %
24.09.2021 08:00 14,7 C 14,1 C 13,4 C 95 % 1017,2 hPa 0,0 l/m 0,00 h 0,00 h 19 W/m 12,3 km/h (3 Bft) 97,29 %
24.09.2021 09:00 14,9 C 14,4 C 13,8 C 95 % 1017,3 hPa 0,0 l/m 0,00 h 0,00 h 42 W/m 12,9 km/h (3 Bft) 97,36 %
24.09.2021 10:00 15,3 C 15,0 C 14,3 C 95 % 1017,6 hPa 0,0 l/m 0,00 h 0,00 h 64 W/m 10,0 km/h (2 Bft) 98,65 %
24.09.2021 11:00 16,6 C 17,1 C 15,8 C 92 % 1017,6 hPa 0,0 l/m 0,00 h 0,00 h 195 W/m 11,5 km/h (2 Bft) 97,08 %
24.09.2021 12:00 17,8 C 17,8 C 16,5 C 85 % 1017,3 hPa 0,0 l/m 0,03 h 0,00 h 202 W/m 12,4 km/h (3 Bft) 97,24 %
24.09.2021 13:00 18,9 C 19,0 C 17,3 C 81 % 1016,9 hPa 0,0 l/m 0,27 h 0,00 h 250 W/m 15,2 km/h (3 Bft) 98,72 %
24.09.2021 14:00 19,3 C 18,9 C 17,3 C 79 % 1016,6 hPa 0,0 l/m 0,00 h 0,00 h 169 W/m 13,5 km/h (3 Bft) 97,22 %
24.09.2021 15:00 19,9 C 19,9 C 17,7 C 78 % 1016,2 hPa 0,0 l/m 0,27 h 0,00 h 229 W/m 10,9 km/h (2 Bft) 96,40 %
24.09.2021 16:00 20,1 C 20,6 C 17,8 C 78 % 1015,6 hPa 0,0 l/m 0,20 h 0,00 h 178 W/m 8,6 km/h (2 Bft) 99,79 %
24.09.2021 17:00 20,6 C 21,1 C 17,8 C 76 % 1015,3 hPa 0,0 l/m 0,47 h 0,00 h 141 W/m 10,1 km/h (2 Bft) 96,15 %
24.09.2021 18:00 20,2 C 19,5 C 17,2 C 74 % 1015,4 hPa 0,0 l/m 0,17 h 0,00 h 56 W/m 9,5 km/h (2 Bft) 97,87 %
24.09.2021 19:00 19,1 C 18,0 C 16,2 C 80 % 1015,7 hPa 0,0 l/m 0,00 h 0,00 h 12 W/m 7,4 km/h (2 Bft) 97,65 %
24.09.2021 20:00 18,3 C 17,0 C 15,3 C 83 % 1016,1 hPa 0,0 l/m 0,00 h 0,00 h 0 W/m 5,1 km/h (1 Bft) 98,22 %
24.09.2021 21:00 17,6 C 16,6 C 15,0 C 85 % 1016,6 hPa 0,0 l/m 0,00 h 0,00 h 0 W/m 10,5 km/h (2 Bft) 97,08 %
24.09.2021 22:00 17,0 C 16,0 C 14,6 C 87 % 1016,6 hPa 0,0 l/m 0,00 h 0,00 h 0 W/m 9,9 km/h (2 Bft) 98,29 %
24.09.2021 23:00 16,3 C 15,3 C 13,8 C 89 % 1016,5 hPa 0,0 l/m 0,00 h 0,00 h 0 W/m 7,6 km/h (2 Bft) 96,36 %
25.09.2021 00:00 15,6 C 14,7 C 13,5 C 90 % 1016,3 hPa 0,0 l/m 0,00 h 0,00 h 0 W/m 6,4 km/h (2 Bft) 98,73 %
25.09.2021 01:00 15,1 C 14,2 C 13,1 C 91 % 1016,4 hPa 0,0 l/m 0,00 h 0,00 h 0 W/m 5,1 km/h (1 Bft) 97,65 %
25.09.2021 02:00 14,6 C 13,5 C 12,5 C 92 % 1016,4 hPa 0,0 l/m 0,00 h 0,00 h 0 W/m 3,7 km/h (1 Bft) 96,16 %
25.09.2021 03:00 14,1 C 13,0 C 12,4 C 92 % 1016,5 hPa 0,0 l/m 0,00 h 0,00 h 0 W/m 3,8 km/h (1 Bft) 98,93 %
25.09.2021 04:00 13,6 C 12,8 C 12,2 C 93 % 1016,5 hPa 0,0 l/m 0,00 h 0,00 h 0 W/m 4,7 km/h (1 Bft) 96,58 %
25.09.2021 05:00 13,7 C 13,3 C 12,7 C 94 % 1016,4 hPa 0,0 l/m 0,00 h 0,00 h 0 W/m 5,2 km/h (1 Bft) 97,36 %
25.09.2021 06:00 14,0 C 13,5 C 12,8 C 94 % 1016,2 hPa 0,0 l/m 0,00 h 0,00 h 0 W/m 5,7 km/h (1 Bft) 98,38 %
25.09.2021 07:00 14,2 C 13,6 C 12,9 C 94 % 1016,4 hPa 0,0 l/m 0,00 h 0,00 h 8 W/m 4,4 km/h (1 Bft) 96,94 %
25.09.2021 08:00 14,4 C 14,0 C 13,4 C 94 % 1016,6 hPa 0,0 l/m 0,00 h 0,00 h 26 W/m 4,7 km/h (1 Bft) 96,87 %
25.09.2021 09:00 14,9 C 14,8 C 14,1 C 94 % 1016,7 hPa 0,0 l/m 0,00 h 0,00 h 85 W/m 7,1 km/h (2 Bft) 99,36 %
25.09.2021 10:00 16,1 C 16,4 C 15,4 C 91 % 1017,2 hPa 0,0 l/m 0,00 h 0,00 h 163 W/m 9,4 km/h (2 Bft) 94,66 %
25.09.2021 11:00 17,5 C 17,7 C 16,3 C 86 % 1017,5 hPa 0,0 l/m 0,00 h 0,00 h 203 W/m 12,9 km/h (3 Bft) 98,44 %
25.09.2021 12:00 18,4 C 18,7 C 17,1 C 84 % 1017,3 hPa 0,0 l/m 0,00 h 0,00 h 216 W/m 7,0 km/h (2 Bft) 98,01 %
25.09.2021 13:00 19,5 C 19,5 C 17,4 C 81 % 1017,1 hPa 0,0 l/m 0,00 h 0,00 h 182 W/m 4,5 km/h (1 Bft) 97,01 %
25.09.2021 14:00 21,1 C 25,2 C 18,3 C 78 % 1016,4 hPa 0,0 l/m 0,73 h 0,00 h 527 W/m 5,8 km/h (2 Bft) 97,72 %
25.09.2021 15:00 23,0 C 22,7 C 19,0 C 70 % 1015,9 hPa 0,0 l/m 1,00 h 0,00 h 528 W/m 6,5 km/h (2 Bft) 97,87 %
25.09.2021 16:00 23,5 C 28,0 C 19,8 C 70 % 1015,4 hPa 0,0 l/m 1,00 h 0,00 h 423 W/m 6,7 km/h (2 Bft) 97,93 %
25.09.2021 17:00 23,4 C 28,6 C 18,8 C 71 % 1015,0 hPa 0,0 l/m 1,00 h 0,00 h 261 W/m 5,9 km/h (2 Bft) 97,79 %
25.09.2021 18:00 22,2 C 21,0 C 17,7 C 75 % 1014,9 hPa 0,0 l/m 0,43 h 0,00 h 62 W/m 4,8 km/h (1 Bft) 97,70 %
25.09.2021 19:00 20,0 C 17,9 C 15,8 C 81 % 1015,1 hPa 0,0 l/m 0,00 h 0,00 h 12 W/m 1,8 km/h (1 Bft) 97,81 %
25.09.2021 20:00 18,1 C 16,5 C 14,8 C 86 % 1015,1 hPa 0,0 l/m 0,00 h 0,00 h 0 W/m 3,3 km/h (1 Bft) 98,08 %
25.09.2021 21:00 17,0 C 15,5 C 14,1 C 89 % 1015,2 hPa 0,0 l/m 0,00 h 0,00 h 0 W/m 2,6 km/h (1 Bft) 97,37 %
25.09.2021 22:00 16,0 C 14,4 C 13,4 C 91 % 1015,2 hPa 0,0 l/m 0,00 h 0,00 h 0 W/m 0,5 km/h (0 Bft) 97,51 %
25.09.2021 23:00 15,2 C 13,9 C 12,8 C 93 % 1015,1 hPa 0,0 l/m 0,00 h 0,00 h 0 W/m 0,2 km/h (0 Bft) 99,22 %
26.09.2021 00:00 14,6 C 13,8 C 13,0 C 94 % 1014,9 hPa 0,0 l/m 0,00 h 0,00 h 0 W/m 0,9 km/h (0 Bft) 93,76 %
26.09.2021 01:00 14,5 C 14,3 C 13,4 C 94 % 1014,6 hPa 0,0 l/m 0,00 h 0,00 h 0 W/m 2,9 km/h (1 Bft) 99,86 %
26.09.2021 02:00 14,5 C 14,3 C 13,4 C 93 % 1014,5 hPa 0,0 l/m 0,00 h 0,00 h 0 W/m 5,1 km/h (1 Bft) 97,34 %
26.09.2021 03:00 14,8 C 14,4 C 13,6 C 90 % 1014,3 hPa 0,0 l/m 0,00 h 0,00 h 0 W/m 5,1 km/h (1 Bft) 97,58 %
26.09.2021 04:00 15,3 C 15,0 C 13,9 C 88 % 1014,3 hPa 0,0 l/m 0,00 h 0,00 h 0 W/m 5,8 km/h (2 Bft) 98,86 %
26.09.2021 05:00 15,7 C 15,0 C 13,9 C 88 % 1014,0 hPa 0,0 l/m 0,00 h 0,07 h 0 W/m 5,7 km/h (1 Bft) 98,01 %
26.09.2021 06:00 15,9 C 15,2 C 14,0 C 88 % 1013,9 hPa 0,0 l/m 0,00 h 0,00 h 0 W/m 5,9 km/h (2 Bft) 96,72 %
26.09.2021 07:00 16,0 C 15,0 C 14,0 C 90 % 1014,1 hPa 0,0 l/m 0,00 h 0,00 h 8 W/m 5,6 km/h (1 Bft) 98,72 %
26.09.2021 08:00 16,2 C 15,8 C 14,7 C 92 % 1014,4 hPa 0,0 l/m 0,00 h 0,00 h 41 W/m 5,7 km/h (1 Bft) 96,16 %
26.09.2021 09:00 17,0 C 17,0 C 15,6 C 92 % 1014,7 hPa 0,0 l/m 0,23 h 0,00 h 119 W/m 7,5 km/h (2 Bft) 97,59 %
26.09.2021 10:00 19,0 C 19,6 C 17,4 C 89 % 1014,9 hPa 0,0 l/m 0,10 h 0,00 h 117 W/m 10,0 km/h (2 Bft) 97,58 %
26.09.2021 11:00 21,5 C 24,3 C 23,3 C 81 % 1015,1 hPa 0,0 l/m 0,60 h 0,00 h 368 W/m 12,6 km/h (3 Bft) 97,07 %
26.09.2021 12:00 23,5 C 24,3 C 22,6 C 72 % 1015,4 hPa 0,0 l/m 0,37 h 0,00 h 274 W/m 19,0 km/h (3 Bft) 97,95 %
26.09.2021 13:00 23,3 C 23,1 C 20,7 C 71 % 1015,5 hPa 0,0 l/m 0,00 h 0,00 h 201 W/m 16,0 km/h (3 Bft) 99,29 %
26.09.2021 14:00 22,6 C 22,4 C 20,0 C 73 % 1015,5 hPa 0,0 l/m 0,00 h 0,00 h 226 W/m 18,0 km/h (3 Bft) 94,52 %
26.09.2021 15:00 22,1 C 21,6 C 19,5 C 75 % 1015,7 hPa 0,0 l/m 0,00 h 0,00 h 158 W/m 16,8 km/h (3 Bft) 99,72 %
26.09.2021 16:00 21,5 C 20,9 C 18,9 C 78 % 1015,7 hPa 0,0 l/m 0,00 h 0,00 h 89 W/m 12,8 km/h (3 Bft) 97,37 %
26.09.2021 17:00 21,4 C 20,9 C 18,7 C 79 % 1015,5 hPa 0,0 l/m 0,20 h 0,00 h 91 W/m 7,7 km/h (2 Bft) 97,17 %
26.09.2021 18:00 21,2 C 20,4 C 18,2 C 80 % 1015,3 hPa 0,0 l/m 0,30 h 0,00 h 55 W/m 6,7 km/h (2 Bft) 97,94 %
26.09.2021 19:00 20,3 C 19,1 C 17,4 C 83 % 1015,6 hPa 0,0 l/m 0,00 h 0,00 h 9 W/m 4,2 km/h (1 Bft) 97,94 %
26.09.2021 20:00 19,5 C 18,3 C 16,7 C 86 % 1015,9 hPa 0,0 l/m 0,00 h 0,00 h 0 W/m 5,4 km/h (1 Bft) 96,88 %
26.09.2021 21:00 18,8 C 17,7 C 16,2 C 88 % 1016,1 hPa 0,0 l/m 0,00 h 0,00 h 0 W/m 3,8 km/h (1 Bft) 99,20 %
26.09.2021 22:00 18,2 C 17,0 C 15,7 C 89 % 1016,2 hPa 0,0 l/m 0,00 h 0,00 h 0 W/m 2,9 km/h (1 Bft) 96,30 %
26.09.2021 23:00 17,6 C 16,3 C 15,2 C 91 % 1016,1 hPa 0,0 l/m 0,00 h 0,00 h 0 W/m 2,8 km/h (1 Bft) 97,72 %
Min-Datum _ 22.09.21 20.09.21 22.09.21 21.09.21 26.09.21 - - - - 20.09.21 22.09.21
_ Min-Zeit 06:54 06:16 05:30 16:04 06:30 - - - - 01:36 12:02
Minimum _ 8,2 C 7,8 C 6,7 C 53 % 1013,8 hPa - - - - 0,0 km/h (0 Bft) 25,00 %
Max-Datum _ 25.09.21 25.09.21 26.09.21 20.09.21 21.09.21 23.09.21 20.09.21 26.09.21 25.09.21 23.09.21 20.09.21
_ Max-Zeit 17:12 16:48 11:56 08:58 21:48 08:26 12:08 05:12 14:24 13:38 00:00
Maximum _ 23,8 C 31,7 C 27,8 C 96 % 1031,2 hPa 0,2 l/m 0,07 h 0,03 h 772 W/m 38,6 km/h
N-NW (5 Bft)
100,00 %
Durchschnitt _ 15,6 C 15,4 C 13,4 C 82 % 1020,9 hPa #0,2 l/m #28:58 h #4 min. 196 W/m 6,6 km/h (2 Bft) 97,48 %
© 2021 W. Hausmann